createdAt,value
2022-09-28T00:02:06.216Z,97971.63
2022-09-28T00:04:36.202Z,97970.13
2022-09-28T00:07:05.344Z,97971.59
2022-09-28T00:09:34.734Z,97975.06
2022-09-28T00:12:03.643Z,97978.44
2022-09-28T00:14:33.427Z,97976.03
2022-09-28T00:17:02.635Z,97981.78
2022-09-28T00:19:32.026Z,97982.94
2022-09-28T00:22:00.955Z,97977.69
2022-09-28T00:24:31.437Z,97984.84
2022-09-28T00:27:02.680Z,97976.75
2022-09-28T00:29:38.309Z,97978.72
2022-09-28T00:32:15.099Z,97985.25
2022-09-28T00:34:49.893Z,97982.31
2022-09-28T00:37:21.243Z,97982.31
2022-09-28T00:39:50.562Z,97989.66
2022-09-28T00:42:27.784Z,97990.94
2022-09-28T00:44:58.648Z,97991.34
2022-09-28T00:47:39.938Z,97993.44
2022-09-28T00:50:27.362Z,98001.97
2022-09-28T00:53:11.070Z,97996.81
2022-09-28T00:55:48.090Z,98005.63
2022-09-28T00:58:26.624Z,98002.50
2022-09-28T01:01:02.295Z,98011.09
2022-09-28T01:03:33.123Z,98015.91
2022-09-28T01:06:08.063Z,98015.50
2022-09-28T01:08:40.129Z,98016.56
2022-09-28T01:11:11.087Z,98019.19
2022-09-28T01:13:43.157Z,98022.56
2022-09-28T01:16:18.863Z,98021.38
2022-09-28T01:19:22.607Z,98031.28
2022-09-28T01:22:06.158Z,98030.09
2022-09-28T01:24:50.850Z,98036.97
2022-09-28T01:27:33.910Z,98038.63
2022-09-28T01:30:16.716Z,98035.06
2022-09-28T01:33:09.255Z,98043.25
2022-09-28T01:36:00.445Z,98048.06
2022-09-28T01:38:40.772Z,98056.09
2022-09-28T01:41:13.641Z,98047.03
2022-09-28T01:43:50.210Z,98048.50
2022-09-28T01:46:27.578Z,98046.44
2022-09-28T01:49:00.221Z,98060.06
2022-09-28T01:51:48.627Z,98053.66
2022-09-28T01:54:37.806Z,98059.53
2022-09-28T01:57:17.969Z,98058.91
2022-09-28T02:00:09.281Z,98048.06
2022-09-28T02:02:46.920Z,98058.81
2022-09-28T02:05:34.230Z,98066.34
2022-09-28T02:08:09.538Z,98066.78
2022-09-28T02:10:58.803Z,98067.16
2022-09-28T02:13:35.456Z,98067.38
2022-09-28T02:16:25.974Z,98073.59
2022-09-28T02:18:56.316Z,98072.66
2022-09-28T02:21:49.913Z,98077.91
2022-09-28T02:24:28.655Z,98074.72
2022-09-28T02:27:05.489Z,98081.22
2022-09-28T02:29:37.257Z,98081.03
2022-09-28T02:32:07.395Z,98082.91
2022-09-28T02:34:37.509Z,98091.09
2022-09-28T02:37:07.790Z,98093.16
2022-09-28T02:39:37.554Z,98099.69
2022-09-28T02:42:19.290Z,98100.28
2022-09-28T02:44:59.355Z,98103.53
2022-09-28T02:47:50.709Z,98104.56
2022-09-28T02:50:46.304Z,98099.19
2022-09-28T02:53:33.331Z,98107.13
2022-09-28T02:56:50.489Z,98112.06
2022-09-28T02:59:20.158Z,98106.88
2022-09-28T03:01:59.303Z,98111.53
2022-09-28T03:04:41.538Z,98109.66
2022-09-28T03:07:26.189Z,98121.22
2022-09-28T03:10:10.477Z,98122.34
2022-09-28T03:12:41.190Z,98125.03
2022-09-28T03:15:35.259Z,98119.97
2022-09-28T03:18:06.124Z,98130.75
2022-09-28T03:20:36.268Z,98128.81
2022-09-28T03:23:23.926Z,98128.78
2022-09-28T03:25:54.991Z,98132.41
2022-09-28T03:28:55.816Z,98119.25
2022-09-28T03:31:27.743Z,98127.16
2022-09-28T03:33:57.690Z,98130.53
2022-09-28T03:36:27.373Z,98130.53
2022-09-28T03:38:57.590Z,98132.06
2022-09-28T03:41:29.037Z,98131.63
2022-09-28T03:43:59.047Z,98137.66
2022-09-28T03:46:30.847Z,98145.56
2022-09-28T03:49:06.860Z,98147.72
2022-09-28T03:51:36.913Z,98143.19
2022-09-28T03:54:07.298Z,98148.94
2022-09-28T03:56:37.284Z,98149.06
2022-09-28T03:59:07.658Z,98147.47
2022-09-28T04:01:38.709Z,98162.22
2022-09-28T04:04:09.113Z,98154.41
2022-09-28T04:06:39.034Z,98154.44
2022-09-28T04:09:09.242Z,98161.41
2022-09-28T04:11:59.721Z,98156.50
2022-09-28T04:14:29.123Z,98159.34
2022-09-28T04:16:59.263Z,98158.03
2022-09-28T04:19:30.645Z,98154.72
2022-09-28T04:22:01.901Z,98160.88
2022-09-28T04:24:32.250Z,98166.25
2022-09-28T04:27:21.959Z,98167.59
2022-09-28T04:29:51.762Z,98160.34
2022-09-28T04:32:22.547Z,98158.66
2022-09-28T04:34:53.022Z,98165.63
2022-09-28T04:37:22.570Z,98164.09
2022-09-28T04:39:52.768Z,98161.56
2022-09-28T04:42:22.028Z,98167.34
2022-09-28T04:44:52.640Z,98163.41
2022-09-28T04:47:21.728Z,98156.78
2022-09-28T04:50:09.533Z,98161.59
2022-09-28T04:52:58.406Z,98165.09
2022-09-28T04:55:33.447Z,98171.38
2022-09-28T04:58:06.195Z,98170.78
2022-09-28T05:00:36.492Z,98166.34
2022-09-28T05:03:17.489Z,98158.47
2022-09-28T05:06:17.001Z,98160.56
2022-09-28T05:08:48.416Z,98160.25
2022-09-28T05:11:21.106Z,98151.47
2022-09-28T05:13:52.003Z,98150.81
2022-09-28T05:16:21.800Z,98150.00
2022-09-28T05:19:17.488Z,98149.19
2022-09-28T05:21:48.020Z,98145.44
2022-09-28T05:24:17.520Z,98148.53
2022-09-28T05:26:52.025Z,98138.91
2022-09-28T05:29:22.124Z,98149.03
2022-09-28T05:32:10.056Z,98150.97
2022-09-28T05:34:46.736Z,98144.47
2022-09-28T05:37:21.643Z,98147.69
2022-09-28T05:39:51.248Z,98141.81
2022-09-28T05:42:20.246Z,98140.72
2022-09-28T05:44:49.625Z,98133.75
2022-09-28T05:47:20.551Z,98137.13
2022-09-28T05:49:50.007Z,98138.50
2022-09-28T05:52:19.214Z,98134.16
2022-09-28T05:54:49.245Z,98135.03
2022-09-28T05:57:18.583Z,98132.94
2022-09-28T05:59:47.574Z,98125.09
2022-09-28T06:02:17.153Z,98124.53
2022-09-28T06:04:46.813Z,98125.66
2022-09-28T06:07:15.813Z,98120.47
2022-09-28T06:09:45.543Z,98124.66
2022-09-28T06:12:23.642Z,98121.47
2022-09-28T06:14:58.288Z,98115.16
2022-09-28T06:17:28.270Z,98114.69
2022-09-28T06:20:17.312Z,98117.47
2022-09-28T06:22:58.480Z,98119.50
2022-09-28T06:25:28.918Z,98111.59
2022-09-28T06:28:04.074Z,98114.97
2022-09-28T06:30:36.121Z,98109.91
2022-09-28T06:33:08.310Z,98102.31
2022-09-28T06:35:43.551Z,98104.38
2022-09-28T06:38:13.017Z,98102.00
2022-09-28T06:40:42.242Z,98096.88
2022-09-28T06:43:16.098Z,98091.19
2022-09-28T06:46:04.437Z,98086.72
2022-09-28T06:48:54.095Z,98087.53
2022-09-28T06:51:43.202Z,98083.91
2022-09-28T06:54:26.793Z,98087.44
2022-09-28T06:57:16.307Z,98081.16
2022-09-28T06:59:45.948Z,98078.34
2022-09-28T07:02:15.495Z,98072.03
2022-09-28T07:04:57.192Z,98070.44
2022-09-28T07:07:38.059Z,98067.38
2022-09-28T07:10:25.157Z,98061.94
2022-09-28T07:13:31.194Z,98067.72
2022-09-28T07:16:08.135Z,98050.88
2022-09-28T07:18:37.854Z,98047.25
2022-09-28T07:21:11.620Z,98055.59
2022-09-28T07:23:52.966Z,98049.75
2022-09-28T07:26:27.127Z,98040.97
2022-09-28T07:29:03.696Z,98040.50
2022-09-28T07:31:43.270Z,98038.84
2022-09-28T07:34:30.781Z,98036.63
2022-09-28T07:37:14.513Z,98036.66
2022-09-28T07:40:01.880Z,98038.03
2022-09-28T07:42:33.589Z,98027.06
2022-09-28T07:45:02.710Z,98020.19
2022-09-28T07:47:35.093Z,98017.50
2022-09-28T07:50:23.310Z,98011.59
2022-09-28T07:53:01.468Z,98002.81
2022-09-28T07:55:33.494Z,98005.47
2022-09-28T07:58:41.366Z,97994.16
2022-09-28T08:01:28.770Z,97995.59
2022-09-28T08:03:57.952Z,97985.22
2022-09-28T08:06:28.349Z,97992.34
2022-09-28T08:08:58.084Z,97988.69
2022-09-28T08:11:37.706Z,97973.16
2022-09-28T08:14:26.712Z,97975.41
2022-09-28T08:17:04.702Z,97980.94
2022-09-28T08:20:19.366Z,97980.41
2022-09-28T08:22:48.665Z,97968.03
2022-09-28T08:25:18.242Z,97963.97
2022-09-28T08:27:48.123Z,97966.50
2022-09-28T08:30:17.756Z,97962.84
2022-09-28T08:32:53.850Z,97962.69
2022-09-28T08:35:42.812Z,97952.59
2022-09-28T08:38:38.985Z,97951.25
2022-09-28T08:41:29.400Z,97938.88
2022-09-28T08:44:11.749Z,97935.91
2022-09-28T08:47:08.025Z,97937.81
2022-09-28T08:50:04.934Z,97934.78
2022-09-28T08:53:04.706Z,97926.34
2022-09-28T08:55:51.909Z,97926.22
2022-09-28T08:58:31.604Z,97925.69
2022-09-28T09:01:04.348Z,97918.31
2022-09-28T09:03:42.915Z,97910.53
2022-09-28T09:06:56.821Z,97906.19
2022-09-28T09:09:51.285Z,97902.25
2022-09-28T09:12:41.732Z,97893.63
2022-09-28T09:15:40.126Z,97894.41
2022-09-28T09:18:44.962Z,97901.03
2022-09-28T09:22:01.260Z,97905.22
2022-09-28T09:24:43.744Z,97896.84
2022-09-28T09:27:41.985Z,97898.16
2022-09-28T09:30:24.092Z,97893.50
2022-09-28T09:33:03.527Z,97891.94
2022-09-28T09:36:01.497Z,97883.81
2022-09-28T09:39:03.375Z,97883.56
2022-09-28T09:41:42.002Z,97877.69
2022-09-28T09:44:36.371Z,97875.72
2022-09-28T09:47:33.292Z,97876.38
2022-09-28T09:50:26.408Z,97871.63
2022-09-28T09:53:01.996Z,97870.31
2022-09-28T09:55:34.126Z,97862.66
2022-09-28T09:58:30.827Z,97862.66
2022-09-28T10:01:15.593Z,97861.38
2022-09-28T10:04:14.229Z,97857.09
2022-09-28T10:06:45.059Z,97864.22
2022-09-28T10:09:24.995Z,97852.81
2022-09-28T10:11:55.426Z,97854.09
2022-09-28T10:14:26.892Z,97848.56
2022-09-28T10:17:13.428Z,97837.84
2022-09-28T10:20:16.350Z,97840.50
2022-09-28T10:23:04.136Z,97831.56
2022-09-28T10:25:37.861Z,97840.19
2022-09-28T10:28:09.079Z,97826.78
2022-09-28T10:30:45.555Z,97825.28
2022-09-28T10:33:35.689Z,97828.47
2022-09-28T10:36:09.668Z,97825.03
2022-09-28T10:38:39.258Z,97823.38
2022-09-28T10:41:14.518Z,97812.94
2022-09-28T10:44:07.870Z,97816.13
2022-09-28T10:46:43.232Z,97811.34
2022-09-28T10:49:20.104Z,97812.09
2022-09-28T10:51:57.758Z,97806.41
2022-09-28T10:54:33.600Z,97804.06
2022-09-28T10:57:03.116Z,97807.22
2022-09-28T10:59:54.840Z,97804.44
2022-09-28T11:02:34.877Z,97803.47
2022-09-28T11:05:31.052Z,97806.34
2022-09-28T11:08:06.794Z,97797.31
2022-09-28T11:10:44.318Z,97799.06
2022-09-28T11:13:16.375Z,97801.00
2022-09-28T11:15:55.621Z,97794.50
2022-09-28T11:18:35.683Z,97792.78
2022-09-28T11:21:15.768Z,97799.06
2022-09-28T11:24:19.280Z,97799.50
2022-09-28T11:26:54.188Z,97805.38
2022-09-28T11:29:39.214Z,97805.09
2022-09-28T11:32:32.464Z,97811.25
2022-09-28T11:35:53.830Z,97802.88
2022-09-28T11:38:36.870Z,97797.75
2022-09-28T11:41:46.473Z,97801.78
2022-09-28T11:44:21.499Z,97801.88
2022-09-28T11:47:06.220Z,97801.66
2022-09-28T11:49:48.452Z,97813.63
2022-09-28T11:52:36.825Z,97804.25
2022-09-28T11:55:35.033Z,97808.31
2022-09-28T11:58:24.372Z,97798.84
2022-09-28T12:01:10.562Z,97810.28
2022-09-28T12:04:13.877Z,97809.72
2022-09-28T12:07:00.331Z,97806.97
2022-09-28T12:09:42.793Z,97807.50
2022-09-28T12:12:38.331Z,97811.41
2022-09-28T12:15:16.976Z,97809.63
2022-09-28T12:18:15.938Z,97812.25
2022-09-28T12:20:50.292Z,97813.66
2022-09-28T12:23:36.949Z,97817.97
2022-09-28T12:26:43.204Z,97817.56
2022-09-28T12:29:16.828Z,97812.56
2022-09-28T12:32:04.349Z,97802.53
2022-09-28T12:34:33.751Z,97808.66
2022-09-28T12:37:16.206Z,97800.88
2022-09-28T12:39:58.408Z,97812.41
2022-09-28T12:42:47.714Z,97807.25
2022-09-28T12:45:53.150Z,97807.81
2022-09-28T12:48:33.108Z,97808.50
2022-09-28T12:51:13.500Z,97812.25
2022-09-28T12:54:14.260Z,97809.91
2022-09-28T12:57:05.926Z,97799.88
2022-09-28T13:00:13.038Z,97809.75
2022-09-28T13:03:08.345Z,97794.16
2022-09-28T13:05:51.130Z,97798.88
2022-09-28T13:08:32.517Z,97801.81
2022-09-28T13:11:07.722Z,97804.94
2022-09-28T13:13:57.480Z,97805.00
2022-09-28T13:16:29.210Z,97807.72
2022-09-28T13:19:17.069Z,97808.16
2022-09-28T13:21:58.638Z,97811.34
2022-09-28T13:24:36.621Z,97816.75
2022-09-28T13:27:16.428Z,97816.34
2022-09-28T13:29:46.615Z,97818.25
2022-09-28T13:32:16.213Z,97825.59
2022-09-28T13:34:50.823Z,97820.22
2022-09-28T13:37:25.403Z,97821.63
2022-09-28T13:40:06.800Z,97823.59
2022-09-28T13:42:53.742Z,97824.81
2022-09-28T13:45:23.227Z,97826.44
2022-09-28T13:48:18.661Z,97824.22
2022-09-28T13:51:18.587Z,97813.78
2022-09-28T13:53:56.991Z,97822.94
2022-09-28T13:56:29.576Z,97824.59
2022-09-28T13:58:58.916Z,97823.16
2022-09-28T14:01:37.939Z,97834.19
2022-09-28T14:04:22.915Z,97833.03
2022-09-28T14:07:11.041Z,97834.13
2022-09-28T14:09:48.019Z,97828.41
2022-09-28T14:12:45.606Z,97835.63
2022-09-28T14:15:36.586Z,97839.09
2022-09-28T14:18:22.094Z,97842.72
2022-09-28T14:21:03.589Z,97841.94
2022-09-28T14:24:10.220Z,97843.03
2022-09-28T14:27:05.117Z,97851.50
2022-09-28T14:29:38.273Z,97849.97
2022-09-28T14:32:10.198Z,97846.28
2022-09-28T14:34:49.486Z,97848.84
2022-09-28T14:37:59.590Z,97853.44
2022-09-28T14:41:13.841Z,97851.56
2022-09-28T14:43:45.949Z,97859.88
2022-09-28T14:46:15.201Z,97857.16
2022-09-28T14:49:05.174Z,97856.97
2022-09-28T14:51:36.573Z,97858.31
2022-09-28T14:54:14.676Z,97861.69
2022-09-28T14:56:51.167Z,97868.66
2022-09-28T14:59:26.249Z,97863.63
2022-09-28T15:02:15.337Z,97866.13
2022-09-28T15:04:48.110Z,97874.72
2022-09-28T15:07:51.675Z,97873.69
2022-09-28T15:10:53.685Z,97875.38
2022-09-28T15:13:27.409Z,97874.25
2022-09-28T15:16:04.894Z,97875.72
2022-09-28T15:19:02.575Z,97874.97
2022-09-28T15:21:44.118Z,97878.56
2022-09-28T15:24:34.678Z,97876.88
2022-09-28T15:27:15.200Z,97882.00
2022-09-28T15:30:01.682Z,97881.75
2022-09-28T15:32:33.240Z,97883.94
2022-09-28T15:35:27.528Z,97882.22
2022-09-28T15:37:57.528Z,97891.28
2022-09-28T15:40:36.199Z,97886.09
2022-09-28T15:43:34.802Z,97893.16
2022-09-28T15:46:21.444Z,97898.22
2022-09-28T15:48:53.819Z,97897.50
2022-09-28T15:51:32.540Z,97904.97
2022-09-28T15:54:05.518Z,97903.38
2022-09-28T15:57:03.800Z,97900.09
2022-09-28T15:59:41.881Z,97907.69
2022-09-28T16:02:26.507Z,97896.41
2022-09-28T16:05:04.170Z,97899.03
2022-09-28T16:07:59.308Z,97907.78
2022-09-28T16:10:34.979Z,97905.56
2022-09-28T16:13:18.337Z,97914.78
2022-09-28T16:15:48.357Z,97916.69
2022-09-28T16:18:26.677Z,97921.75
2022-09-28T16:21:00.467Z,97922.22
2022-09-28T16:23:35.243Z,97915.75
2022-09-28T16:26:14.510Z,97916.34
2022-09-28T16:28:47.079Z,97916.44
2022-09-28T16:31:17.647Z,97917.28
2022-09-28T16:34:09.493Z,97920.19
2022-09-28T16:36:48.252Z,97916.34
2022-09-28T16:39:19.566Z,97915.16
2022-09-28T16:42:01.152Z,97920.91
2022-09-28T16:44:34.481Z,97915.31
2022-09-28T16:47:05.264Z,97911.72
2022-09-28T16:49:36.686Z,97917.56
2022-09-28T16:52:13.548Z,97920.06
2022-09-28T16:55:01.418Z,97923.09
2022-09-28T16:57:30.982Z,97926.69
2022-09-28T17:00:02.745Z,97929.31
2022-09-28T17:02:46.230Z,97926.69
2022-09-28T17:05:38.176Z,97925.84
2022-09-28T17:08:08.976Z,97921.91
2022-09-28T17:11:15.540Z,97917.94
2022-09-28T17:13:49.466Z,97917.94
2022-09-28T17:16:42.944Z,97921.19
2022-09-28T17:19:28.716Z,97922.88
2022-09-28T17:21:59.854Z,97927.88
2022-09-28T17:24:43.072Z,97920.72
2022-09-28T17:27:17.829Z,97916.38
2022-09-28T17:29:49.774Z,97922.03
2022-09-28T17:32:20.639Z,97926.47
2022-09-28T17:35:00.718Z,97921.41
2022-09-28T17:37:40.107Z,97925.47
2022-09-28T17:40:21.698Z,97920.13
2022-09-28T17:42:57.299Z,97921.66
2022-09-28T17:45:32.639Z,97919.13
2022-09-28T17:48:02.223Z,97921.28
2022-09-28T17:50:35.157Z,97925.84
2022-09-28T17:53:07.181Z,97923.94
2022-09-28T17:55:38.855Z,97920.81
2022-09-28T17:58:18.806Z,97919.72
2022-09-28T18:00:50.162Z,97925.47
2022-09-28T18:03:24.808Z,97916.88
2022-09-28T18:06:05.517Z,97915.88
2022-09-28T18:08:35.618Z,97918.19
2022-09-28T18:11:04.708Z,97925.25
2022-09-28T18:13:33.861Z,97915.53
2022-09-28T18:16:03.371Z,97916.97
2022-09-28T18:18:34.449Z,97912.66
2022-09-28T18:21:03.927Z,97917.06
2022-09-28T18:23:33.040Z,97915.63
2022-09-28T18:26:02.737Z,97910.59
2022-09-28T18:28:32.217Z,97911.81
2022-09-28T18:31:07.969Z,97909.28
2022-09-28T18:33:37.744Z,97910.13
2022-09-28T18:36:08.558Z,97910.00
2022-09-28T18:38:39.796Z,97908.41
2022-09-28T18:41:11.335Z,97911.69
2022-09-28T18:43:40.430Z,97910.00
2022-09-28T18:46:12.484Z,97908.09
2022-09-28T18:48:42.049Z,97909.19
2022-09-28T18:51:13.556Z,97912.53
2022-09-28T18:53:42.964Z,97911.56
2022-09-28T18:56:22.425Z,97909.06
2022-09-28T18:58:54.584Z,97912.53
2022-09-28T19:01:31.705Z,97913.00
2022-09-28T19:04:06.456Z,97914.06
2022-09-28T19:06:39.826Z,97911.53
2022-09-28T19:09:09.863Z,97911.13
2022-09-28T19:11:39.390Z,97910.09
2022-09-28T19:14:08.395Z,97912.94
2022-09-28T19:16:37.450Z,97904.72
2022-09-28T19:19:07.702Z,97906.06
2022-09-28T19:21:37.054Z,97905.13
2022-09-28T19:24:06.511Z,97906.22
2022-09-28T19:26:36.171Z,97910.75
2022-09-28T19:29:05.399Z,97901.66
2022-09-28T19:31:34.854Z,97903.56
2022-09-28T19:34:04.475Z,97900.44
2022-09-28T19:36:34.048Z,97909.06
2022-09-28T19:39:04.634Z,97900.66
2022-09-28T19:41:52.205Z,97900.19
2022-09-28T19:44:26.208Z,97896.63
2022-09-28T19:47:09.736Z,97902.03
2022-09-28T19:49:41.297Z,97906.44
2022-09-28T19:52:17.273Z,97902.25
2022-09-28T19:54:58.294Z,97904.28
2022-09-28T19:57:29.533Z,97906.22
2022-09-28T20:00:02.688Z,97900.09
2022-09-28T20:02:36.439Z,97899.72
2022-09-28T20:05:06.162Z,97901.50
2022-09-28T20:07:37.115Z,97900.19
2022-09-28T20:10:06.678Z,97897.00
2022-09-28T20:12:36.123Z,97890.28
2022-09-28T20:15:06.518Z,97890.66
2022-09-28T20:17:37.963Z,97891.97
2022-09-28T20:20:07.380Z,97894.22
2022-09-28T20:22:38.047Z,97884.78
2022-09-28T20:25:07.788Z,97883.47
2022-09-28T20:27:37.009Z,97880.72
2022-09-28T20:30:07.570Z,97879.06
2022-09-28T20:32:36.895Z,97886.00
2022-09-28T20:35:06.923Z,97883.69
2022-09-28T20:37:36.232Z,97877.84
2022-09-28T20:40:05.567Z,97873.50
2022-09-28T20:42:34.611Z,97862.78
2022-09-28T20:45:03.952Z,97864.44
2022-09-28T20:47:33.042Z,97867.78
2022-09-28T20:50:02.200Z,97865.75
2022-09-28T20:52:31.333Z,97871.81
2022-09-28T20:55:00.497Z,97872.09
2022-09-28T20:57:30.048Z,97870.69
2022-09-28T20:59:59.448Z,97873.19
2022-09-28T21:02:29.195Z,97878.91
2022-09-28T21:04:58.526Z,97878.88
2022-09-28T21:07:27.348Z,97879.91
2022-09-28T21:09:56.806Z,97877.41
2022-09-28T21:12:32.385Z,97876.44
2022-09-28T21:15:05.772Z,97872.13
2022-09-28T21:17:35.304Z,97875.00
2022-09-28T21:20:05.235Z,97866.88
2022-09-28T21:22:34.319Z,97864.47
2022-09-28T21:25:03.509Z,97869.59
2022-09-28T21:27:32.647Z,97866.25
2022-09-28T21:30:02.532Z,97872.66
2022-09-28T21:32:31.603Z,97871.72
2022-09-28T21:35:00.991Z,97868.97
2022-09-28T21:37:30.339Z,97872.56
2022-09-28T21:40:00.677Z,97876.97
2022-09-28T21:42:29.850Z,97875.53
2022-09-28T21:44:59.621Z,97881.19
2022-09-28T21:47:28.569Z,97885.94
2022-09-28T21:49:57.649Z,97881.63
2022-09-28T21:52:26.836Z,97875.19
2022-09-28T21:54:56.103Z,97876.13
2022-09-28T21:57:25.048Z,97875.09
2022-09-28T21:59:54.287Z,97886.66
2022-09-28T22:02:24.224Z,97875.53
2022-09-28T22:04:53.140Z,97870.88
2022-09-28T22:07:22.514Z,97872.78
2022-09-28T22:09:53.501Z,97876.38
2022-09-28T22:12:23.065Z,97881.63
2022-09-28T22:14:52.080Z,97887.81
2022-09-28T22:17:21.363Z,97881.63
2022-09-28T22:19:51.235Z,97884.13
2022-09-28T22:22:20.444Z,97887.72
2022-09-28T22:24:49.405Z,97881.63
2022-09-28T22:27:18.783Z,97883.53
2022-09-28T22:29:47.943Z,97877.06
2022-09-28T22:32:17.036Z,97879.69
2022-09-28T22:34:46.111Z,97880.41
2022-09-28T22:37:15.492Z,97882.53
2022-09-28T22:39:44.415Z,97891.13
2022-09-28T22:42:13.438Z,97895.56
2022-09-28T22:44:42.766Z,97893.75
2022-09-28T22:47:11.647Z,97889.22
2022-09-28T22:49:40.845Z,97897.00
2022-09-28T22:52:09.908Z,97890.28
2022-09-28T22:54:41.434Z,97894.59
2022-09-28T22:57:10.651Z,97895.09
2022-09-28T22:59:39.758Z,97898.34
2022-09-28T23:02:09.089Z,97895.94
2022-09-28T23:04:38.098Z,97899.41
2022-09-28T23:07:07.672Z,97896.56
2022-09-28T23:09:36.711Z,97894.88
2022-09-28T23:12:05.872Z,97906.97
2022-09-28T23:14:35.046Z,97908.00
2022-09-28T23:17:04.264Z,97907.53
2022-09-28T23:19:33.662Z,97908.22
2022-09-28T23:22:02.720Z,97898.63
2022-09-28T23:24:31.904Z,97896.63
2022-09-28T23:27:01.057Z,97898.97
2022-09-28T23:29:30.235Z,97902.66
2022-09-28T23:32:02.679Z,97912.72
2022-09-28T23:34:32.140Z,97923.38
2022-09-28T23:37:05.280Z,97915.47
2022-09-28T23:39:34.598Z,97913.47
2022-09-28T23:42:04.106Z,97916.41
2022-09-28T23:44:33.729Z,97918.09
2022-09-28T23:47:03.112Z,97926.44
2022-09-28T23:49:33.281Z,97925.25
2022-09-28T23:52:02.658Z,97926.22
2022-09-28T23:54:31.701Z,97927.25
2022-09-28T23:57:01.717Z,97925.91
2022-09-28T23:59:30.860Z,97936.72
